sensor_id;sensor_type;location;lat;lon;timestamp;P1;durP1;ratioP1;P2;durP2;ratioP2
76867;SDS011;66168;45.478;11.060;2023-02-26T00:00:06;27.00;;;14.80;;
76867;SDS011;66168;45.478;11.060;2023-02-26T00:02:42;25.20;;;12.70;;
76867;SDS011;66168;45.478;11.060;2023-02-26T00:05:17;25.80;;;14.00;;
76867;SDS011;66168;45.478;11.060;2023-02-26T00:07:44;26.90;;;14.30;;
76867;SDS011;66168;45.478;11.060;2023-02-26T00:10:11;30.10;;;14.70;;
76867;SDS011;66168;45.478;11.060;2023-02-26T00:12:39;29.40;;;14.40;;
76867;SDS011;66168;45.478;11.060;2023-02-26T00:15:06;30.50;;;15.90;;
76867;SDS011;66168;45.478;11.060;2023-02-26T00:20:27;27.40;;;14.90;;
76867;SDS011;66168;45.478;11.060;2023-02-26T00:22:54;28.20;;;16.50;;
76867;SDS011;66168;45.478;11.060;2023-02-26T00:25:21;28.60;;;15.50;;
76867;SDS011;66168;45.478;11.060;2023-02-26T00:27:48;31.50;;;15.90;;
76867;SDS011;66168;45.478;11.060;2023-02-26T00:30:15;26.20;;;15.10;;
76867;SDS011;66168;45.478;11.060;2023-02-26T00:32:42;32.30;;;15.60;;
76867;SDS011;66168;45.478;11.060;2023-02-26T00:35:11;30.00;;;15.30;;
76867;SDS011;66168;45.478;11.060;2023-02-26T00:40:36;26.20;;;13.60;;
76867;SDS011;66168;45.478;11.060;2023-02-26T00:43:05;28.50;;;15.10;;
76867;SDS011;66168;45.478;11.060;2023-02-26T00:45:34;28.10;;;15.80;;
76867;SDS011;66168;45.478;11.060;2023-02-26T00:48:21;29.30;;;15.40;;
76867;SDS011;66168;45.478;11.060;2023-02-26T00:56:28;35.00;;;16.70;;
76867;SDS011;66168;45.478;11.060;2023-02-26T00:58:55;35.40;;;18.10;;
76867;SDS011;66168;45.478;11.060;2023-02-26T01:01:23;28.00;;;15.30;;
76867;SDS011;66168;45.478;11.060;2023-02-26T01:03:50;30.90;;;15.70;;
76867;SDS011;66168;45.478;11.060;2023-02-26T01:06:18;35.40;;;18.10;;
76867;SDS011;66168;45.478;11.060;2023-02-26T01:08:50;31.20;;;16.90;;
76867;SDS011;66168;45.478;11.060;2023-02-26T01:11:23;27.80;;;14.40;;
76867;SDS011;66168;45.478;11.060;2023-02-26T01:13:50;28.60;;;14.40;;
76867;SDS011;66168;45.478;11.060;2023-02-26T01:16:22;32.50;;;17.10;;
76867;SDS011;66168;45.478;11.060;2023-02-26T01:19:02;30.60;;;18.60;;
76867;SDS011;66168;45.478;11.060;2023-02-26T01:21:40;29.40;;;15.30;;
76867;SDS011;66168;45.478;11.060;2023-02-26T01:24:13;27.10;;;15.00;;
76867;SDS011;66168;45.478;11.060;2023-02-26T01:26:42;29.50;;;15.10;;
76867;SDS011;66168;45.478;11.060;2023-02-26T01:29:09;32.80;;;16.30;;
76867;SDS011;66168;45.478;11.060;2023-02-26T01:31:37;26.10;;;14.90;;
76867;SDS011;66168;45.478;11.060;2023-02-26T01:34:24;27.20;;;15.00;;
76867;SDS011;66168;45.478;11.060;2023-02-26T01:37:06;27.60;;;14.50;;
76867;SDS011;66168;45.478;11.060;2023-02-26T01:39:51;32.70;;;15.80;;
76867;SDS011;66168;45.478;11.060;2023-02-26T01:42:42;29.20;;;16.30;;
76867;SDS011;66168;45.478;11.060;2023-02-26T01:45:13;35.70;;;17.10;;
76867;SDS011;66168;45.478;11.060;2023-02-26T01:50:28;39.90;;;19.00;;
76867;SDS011;66168;45.478;11.060;2023-02-26T01:53:15;36.00;;;18.60;;
76867;SDS011;66168;45.478;11.060;2023-02-26T01:55:44;31.50;;;15.10;;
76867;SDS011;66168;45.478;11.060;2023-02-26T01:58:16;33.00;;;16.10;;
76867;SDS011;66168;45.478;11.060;2023-02-26T02:00:45;37.20;;;17.20;;
76867;SDS011;66168;45.478;11.060;2023-02-26T02:03:12;30.30;;;15.90;;
76867;SDS011;66168;45.478;11.060;2023-02-26T02:06:23;31.20;;;15.90;;
76867;SDS011;66168;45.478;11.060;2023-02-26T02:08:32;32.00;;;16.30;;
76867;SDS011;66168;45.478;11.060;2023-02-26T02:11:02;39.70;;;18.00;;
76867;SDS011;66168;45.478;11.060;2023-02-26T02:33:17;17.50;;;7.40;;
76867;SDS011;66168;45.478;11.060;2023-02-26T02:35:50;12.10;;;6.50;;
76867;SDS011;66168;45.478;11.060;2023-02-26T02:38:33;10.00;;;4.30;;
76867;SDS011;66168;45.478;11.060;2023-02-26T02:41:14;7.50;;;4.10;;
76867;SDS011;66168;45.478;11.060;2023-02-26T02:43:46;6.90;;;2.30;;
76867;SDS011;66168;45.478;11.060;2023-02-26T02:46:19;2.60;;;1.30;;
76867;SDS011;66168;45.478;11.060;2023-02-26T02:52:00;1.60;;;1.20;;
76867;SDS011;66168;45.478;11.060;2023-02-26T02:54:44;2.90;;;1.50;;
76867;SDS011;66168;45.478;11.060;2023-02-26T02:59:51;6.50;;;1.10;;
76867;SDS011;66168;45.478;11.060;2023-02-26T03:02:34;1.60;;;0.80;;
76867;SDS011;66168;45.478;11.060;2023-02-26T03:05:06;0.80;;;0.80;;
76867;SDS011;66168;45.478;11.060;2023-02-26T03:07:37;1.20;;;0.90;;
76867;SDS011;66168;45.478;11.060;2023-02-26T03:10:12;2.60;;;1.10;;
76867;SDS011;66168;45.478;11.060;2023-02-26T03:12:40;1.00;;;0.90;;
76867;SDS011;66168;45.478;11.060;2023-02-26T03:15:06;1.20;;;0.80;;
76867;SDS011;66168;45.478;11.060;2023-02-26T03:23:45;1.30;;;0.70;;
76867;SDS011;66168;45.478;11.060;2023-02-26T03:29:13;1.80;;;0.60;;
76867;SDS011;66168;45.478;11.060;2023-02-26T03:39:57;1.20;;;0.40;;
76867;SDS011;66168;45.478;11.060;2023-02-26T03:42:38;0.30;;;0.30;;
76867;SDS011;66168;45.478;11.060;2023-02-26T03:45:12;0.30;;;0.20;;
76867;SDS011;66168;45.478;11.060;2023-02-26T03:47:44;0.40;;;0.30;;
76867;SDS011;66168;45.478;11.060;2023-02-26T03:50:19;1.10;;;0.40;;
76867;SDS011;66168;45.478;11.060;2023-02-26T03:53:16;0.30;;;0.30;;
76867;SDS011;66168;45.478;11.060;2023-02-26T03:55:55;1.10;;;0.20;;
76867;SDS011;66168;45.478;11.060;2023-02-26T03:58:52;0.20;;;0.20;;
76867;SDS011;66168;45.478;11.060;2023-02-26T04:01:24;0.20;;;0.20;;
76867;SDS011;66168;45.478;11.060;2023-02-26T04:03:58;0.10;;;0.10;;
76867;SDS011;66168;45.478;11.060;2023-02-26T04:06:29;0.60;;;0.30;;
76867;SDS011;66168;45.478;11.060;2023-02-26T04:08:59;0.00;;;0.00;;
76867;SDS011;66168;45.478;11.060;2023-02-26T04:11:27;0.10;;;0.10;;
76867;SDS011;66168;45.478;11.060;2023-02-26T04:13:55;0.40;;;0.10;;
76867;SDS011;66168;45.478;11.060;2023-02-26T04:16:21;0.60;;;0.20;;
76867;SDS011;66168;45.478;11.060;2023-02-26T04:18:50;0.30;;;0.30;;
76867;SDS011;66168;45.478;11.060;2023-02-26T04:21:18;0.10;;;0.10;;
76867;SDS011;66168;45.478;11.060;2023-02-26T04:23:47;0.20;;;0.10;;
76867;SDS011;66168;45.478;11.060;2023-02-26T04:26:14;0.40;;;0.30;;
76867;SDS011;66168;45.478;11.060;2023-02-26T04:28:42;0.10;;;0.10;;
76867;SDS011;66168;45.478;11.060;2023-02-26T04:31:10;0.40;;;0.40;;
76867;SDS011;66168;45.478;11.060;2023-02-26T04:33:37;0.10;;;0.10;;
76867;SDS011;66168;45.478;11.060;2023-02-26T04:36:04;0.40;;;0.30;;
76867;SDS011;66168;45.478;11.060;2023-02-26T04:38:31;0.20;;;0.20;;
76867;SDS011;66168;45.478;11.060;2023-02-26T04:40:58;1.10;;;0.20;;
76867;SDS011;66168;45.478;11.060;2023-02-26T04:43:25;0.20;;;0.20;;
76867;SDS011;66168;45.478;11.060;2023-02-26T04:46:11;0.30;;;0.30;;
76867;SDS011;66168;45.478;11.060;2023-02-26T04:48:38;0.30;;;0.30;;
76867;SDS011;66168;45.478;11.060;2023-02-26T04:51:04;1.20;;;0.10;;
76867;SDS011;66168;45.478;11.060;2023-02-26T04:53:32;0.30;;;0.10;;
76867;SDS011;66168;45.478;11.060;2023-02-26T04:55:58;0.90;;;0.40;;
76867;SDS011;66168;45.478;11.060;2023-02-26T04:58:25;0.10;;;0.10;;
76867;SDS011;66168;45.478;11.060;2023-02-26T05:01:01;1.10;;;0.30;;
76867;SDS011;66168;45.478;11.060;2023-02-26T05:03:28;0.10;;;0.10;;
76867;SDS011;66168;45.478;11.060;2023-02-26T05:05:55;0.30;;;0.20;;
76867;SDS011;66168;45.478;11.060;2023-02-26T05:08:22;0.30;;;0.30;;
76867;SDS011;66168;45.478;11.060;2023-02-26T05:10:50;0.30;;;0.30;;
76867;SDS011;66168;45.478;11.060;2023-02-26T05:13:18;0.00;;;0.00;;
76867;SDS011;66168;45.478;11.060;2023-02-26T05:15:45;0.50;;;0.40;;
76867;SDS011;66168;45.478;11.060;2023-02-26T05:18:12;0.40;;;0.30;;
76867;SDS011;66168;45.478;11.060;2023-02-26T05:20:39;0.20;;;0.20;;
76867;SDS011;66168;45.478;11.060;2023-02-26T05:23:06;0.20;;;0.20;;
76867;SDS011;66168;45.478;11.060;2023-02-26T05:25:33;0.40;;;0.30;;
76867;SDS011;66168;45.478;11.060;2023-02-26T05:28:00;0.30;;;0.30;;
76867;SDS011;66168;45.478;11.060;2023-02-26T05:30:27;0.40;;;0.40;;
76867;SDS011;66168;45.478;11.060;2023-02-26T05:32:54;1.10;;;0.30;;
76867;SDS011;66168;45.478;11.060;2023-02-26T05:35:21;0.40;;;0.40;;
76867;SDS011;66168;45.478;11.060;2023-02-26T05:37:47;0.30;;;0.30;;
76867;SDS011;66168;45.478;11.060;2023-02-26T05:40:14;0.60;;;0.40;;
76867;SDS011;66168;45.478;11.060;2023-02-26T05:42:40;0.70;;;0.40;;
76867;SDS011;66168;45.478;11.060;2023-02-26T05:45:07;0.30;;;0.30;;
76867;SDS011;66168;45.478;11.060;2023-02-26T05:47:35;1.70;;;0.60;;
76867;SDS011;66168;45.478;11.060;2023-02-26T05:50:03;0.40;;;0.40;;
76867;SDS011;66168;45.478;11.060;2023-02-26T05:52:30;0.40;;;0.40;;
76867;SDS011;66168;45.478;11.060;2023-02-26T05:54:58;0.40;;;0.40;;
76867;SDS011;66168;45.478;11.060;2023-02-26T05:57:24;0.90;;;0.50;;
76867;SDS011;66168;45.478;11.060;2023-02-26T05:59:51;0.70;;;0.40;;
76867;SDS011;66168;45.478;11.060;2023-02-26T06:02:18;0.40;;;0.40;;
76867;SDS011;66168;45.478;11.060;2023-02-26T06:04:44;1.10;;;0.50;;
76867;SDS011;66168;45.478;11.060;2023-02-26T06:07:11;1.20;;;0.40;;
76867;SDS011;66168;45.478;11.060;2023-02-26T06:09:38;0.10;;;0.10;;
76867;SDS011;66168;45.478;11.060;2023-02-26T06:12:05;0.40;;;0.40;;
76867;SDS011;66168;45.478;11.060;2023-02-26T06:14:32;0.30;;;0.30;;
76867;SDS011;66168;45.478;11.060;2023-02-26T06:17:01;0.20;;;0.20;;
76867;SDS011;66168;45.478;11.060;2023-02-26T06:19:29;0.60;;;0.50;;
76867;SDS011;66168;45.478;11.060;2023-02-26T06:21:56;0.30;;;0.30;;
76867;SDS011;66168;45.478;11.060;2023-02-26T06:24:22;0.20;;;0.20;;
76867;SDS011;66168;45.478;11.060;2023-02-26T06:26:49;0.20;;;0.20;;
76867;SDS011;66168;45.478;11.060;2023-02-26T06:29:16;0.20;;;0.20;;
76867;SDS011;66168;45.478;11.060;2023-02-26T06:31:44;0.50;;;0.40;;
76867;SDS011;66168;45.478;11.060;2023-02-26T06:34:11;0.40;;;0.40;;
76867;SDS011;66168;45.478;11.060;2023-02-26T06:36:38;0.50;;;0.50;;
76867;SDS011;66168;45.478;11.060;2023-02-26T06:39:04;0.40;;;0.40;;
76867;SDS011;66168;45.478;11.060;2023-02-26T06:41:31;0.50;;;0.50;;
76867;SDS011;66168;45.478;11.060;2023-02-26T06:43:58;0.40;;;0.40;;
76867;SDS011;66168;45.478;11.060;2023-02-26T06:46:25;0.70;;;0.50;;
76867;SDS011;66168;45.478;11.060;2023-02-26T06:48:52;0.40;;;0.40;;
76867;SDS011;66168;45.478;11.060;2023-02-26T06:51:19;0.70;;;0.40;;
76867;SDS011;66168;45.478;11.060;2023-02-26T06:53:46;0.30;;;0.30;;
76867;SDS011;66168;45.478;11.060;2023-02-26T06:56:12;0.00;;;0.00;;
76867;SDS011;66168;45.478;11.060;2023-02-26T06:58:39;0.60;;;0.60;;
76867;SDS011;66168;45.478;11.060;2023-02-26T07:01:05;1.40;;;0.50;;
76867;SDS011;66168;45.478;11.060;2023-02-26T07:03:32;0.30;;;0.30;;
76867;SDS011;66168;45.478;11.060;2023-02-26T07:05:59;0.40;;;0.40;;
76867;SDS011;66168;45.478;11.060;2023-02-26T07:08:45;0.40;;;0.40;;
76867;SDS011;66168;45.478;11.060;2023-02-26T07:11:12;1.20;;;0.50;;
76867;SDS011;66168;45.478;11.060;2023-02-26T07:13:40;2.00;;;0.40;;
76867;SDS011;66168;45.478;11.060;2023-02-26T07:16:06;0.50;;;0.50;;
76867;SDS011;66168;45.478;11.060;2023-02-26T07:18:35;0.30;;;0.30;;
76867;SDS011;66168;45.478;11.060;2023-02-26T07:21:03;0.40;;;0.40;;
76867;SDS011;66168;45.478;11.060;2023-02-26T07:23:30;0.60;;;0.40;;
76867;SDS011;66168;45.478;11.060;2023-02-26T07:25:56;0.90;;;0.60;;
76867;SDS011;66168;45.478;11.060;2023-02-26T07:28:23;1.00;;;0.40;;
76867;SDS011;66168;45.478;11.060;2023-02-26T07:30:50;0.50;;;0.40;;
76867;SDS011;66168;45.478;11.060;2023-02-26T07:33:20;0.40;;;0.40;;
76867;SDS011;66168;45.478;11.060;2023-02-26T07:35:47;0.50;;;0.40;;
76867;SDS011;66168;45.478;11.060;2023-02-26T07:38:13;0.40;;;0.40;;
76867;SDS011;66168;45.478;11.060;2023-02-26T07:40:40;0.60;;;0.30;;
76867;SDS011;66168;45.478;11.060;2023-02-26T07:43:07;0.40;;;0.40;;
76867;SDS011;66168;45.478;11.060;2023-02-26T07:45:33;0.30;;;0.30;;
76867;SDS011;66168;45.478;11.060;2023-02-26T07:48:00;0.40;;;0.40;;
76867;SDS011;66168;45.478;11.060;2023-02-26T07:50:27;0.10;;;0.10;;
76867;SDS011;66168;45.478;11.060;2023-02-26T07:52:53;0.30;;;0.30;;
76867;SDS011;66168;45.478;11.060;2023-02-26T07:55:20;0.50;;;0.30;;
76867;SDS011;66168;45.478;11.060;2023-02-26T07:57:47;0.20;;;0.20;;
76867;SDS011;66168;45.478;11.060;2023-02-26T08:00:14;0.20;;;0.20;;
76867;SDS011;66168;45.478;11.060;2023-02-26T08:02:41;0.30;;;0.30;;
76867;SDS011;66168;45.478;11.060;2023-02-26T08:05:08;0.50;;;0.30;;
76867;SDS011;66168;45.478;11.060;2023-02-26T08:07:34;0.40;;;0.40;;
76867;SDS011;66168;45.478;11.060;2023-02-26T08:10:03;0.50;;;0.50;;
76867;SDS011;66168;45.478;11.060;2023-02-26T08:12:30;0.60;;;0.40;;
76867;SDS011;66168;45.478;11.060;2023-02-26T08:14:58;0.20;;;0.20;;
76867;SDS011;66168;45.478;11.060;2023-02-26T08:17:25;0.40;;;0.40;;
76867;SDS011;66168;45.478;11.060;2023-02-26T08:19:51;0.10;;;0.10;;
76867;SDS011;66168;45.478;11.060;2023-02-26T08:22:19;0.10;;;0.10;;
76867;SDS011;66168;45.478;11.060;2023-02-26T08:24:47;0.40;;;0.30;;
76867;SDS011;66168;45.478;11.060;2023-02-26T08:27:14;1.30;;;0.20;;
76867;SDS011;66168;45.478;11.060;2023-02-26T08:29:40;0.20;;;0.20;;
76867;SDS011;66168;45.478;11.060;2023-02-26T08:32:08;0.50;;;0.30;;
76867;SDS011;66168;45.478;11.060;2023-02-26T08:34:35;0.90;;;0.30;;
76867;SDS011;66168;45.478;11.060;2023-02-26T08:37:01;2.10;;;0.30;;
76867;SDS011;66168;45.478;11.060;2023-02-26T08:39:28;0.30;;;0.30;;
76867;SDS011;66168;45.478;11.060;2023-02-26T08:41:58;0.50;;;0.50;;
76867;SDS011;66168;45.478;11.060;2023-02-26T08:44:25;0.10;;;0.10;;
76867;SDS011;66168;45.478;11.060;2023-02-26T08:46:51;0.40;;;0.40;;
76867;SDS011;66168;45.478;11.060;2023-02-26T08:49:18;0.40;;;0.40;;
76867;SDS011;66168;45.478;11.060;2023-02-26T08:51:45;0.50;;;0.40;;
76867;SDS011;66168;45.478;11.060;2023-02-26T08:54:11;0.20;;;0.20;;
76867;SDS011;66168;45.478;11.060;2023-02-26T08:56:38;0.20;;;0.20;;
76867;SDS011;66168;45.478;11.060;2023-02-26T08:59:05;0.20;;;0.20;;
76867;SDS011;66168;45.478;11.060;2023-02-26T09:01:32;0.30;;;0.30;;
76867;SDS011;66168;45.478;11.060;2023-02-26T09:03:59;0.40;;;0.40;;
76867;SDS011;66168;45.478;11.060;2023-02-26T09:06:26;0.60;;;0.30;;
76867;SDS011;66168;45.478;11.060;2023-02-26T09:08:53;0.20;;;0.20;;
76867;SDS011;66168;45.478;11.060;2023-02-26T09:11:19;0.50;;;0.30;;
76867;SDS011;66168;45.478;11.060;2023-02-26T09:13:46;0.30;;;0.30;;
76867;SDS011;66168;45.478;11.060;2023-02-26T09:16:13;0.20;;;0.20;;
76867;SDS011;66168;45.478;11.060;2023-02-26T09:18:40;0.80;;;0.40;;
76867;SDS011;66168;45.478;11.060;2023-02-26T09:21:06;0.40;;;0.40;;
76867;SDS011;66168;45.478;11.060;2023-02-26T09:23:33;0.40;;;0.40;;
76867;SDS011;66168;45.478;11.060;2023-02-26T09:26:00;0.40;;;0.40;;
76867;SDS011;66168;45.478;11.060;2023-02-26T09:28:27;0.50;;;0.50;;
76867;SDS011;66168;45.478;11.060;2023-02-26T09:30:54;0.60;;;0.60;;
76867;SDS011;66168;45.478;11.060;2023-02-26T09:33:21;0.90;;;0.40;;
76867;SDS011;66168;45.478;11.060;2023-02-26T09:35:49;0.80;;;0.60;;
76867;SDS011;66168;45.478;11.060;2023-02-26T09:38:17;0.70;;;0.70;;
76867;SDS011;66168;45.478;11.060;2023-02-26T09:46:20;0.40;;;0.40;;
76867;SDS011;66168;45.478;11.060;2023-02-26T09:52:20;3.70;;;1.30;;
76867;SDS011;66168;45.478;11.060;2023-02-26T09:55:13;1.30;;;0.80;;
76867;SDS011;66168;45.478;11.060;2023-02-26T09:57:47;1.50;;;0.60;;
76867;SDS011;66168;45.478;11.060;2023-02-26T10:05:39;0.90;;;0.80;;
76867;SDS011;66168;45.478;11.060;2023-02-26T10:08:13;0.60;;;0.60;;
76867;SDS011;66168;45.478;11.060;2023-02-26T10:13:30;0.20;;;0.20;;
76867;SDS011;66168;45.478;11.060;2023-02-26T10:16:24;0.40;;;0.40;;
76867;SDS011;66168;45.478;11.060;2023-02-26T10:18:57;1.60;;;0.50;;
76867;SDS011;66168;45.478;11.060;2023-02-26T10:21:40;0.60;;;0.60;;
76867;SDS011;66168;45.478;11.060;2023-02-26T10:24:18;0.50;;;0.50;;
76867;SDS011;66168;45.478;11.060;2023-02-26T10:26:59;0.60;;;0.60;;
76867;SDS011;66168;45.478;11.060;2023-02-26T10:29:33;0.40;;;0.40;;
76867;SDS011;66168;45.478;11.060;2023-02-26T10:34:55;1.00;;;0.60;;
76867;SDS011;66168;45.478;11.060;2023-02-26T10:42:51;0.70;;;0.70;;
76867;SDS011;66168;45.478;11.060;2023-02-26T10:51:13;0.80;;;0.80;;
76867;SDS011;66168;45.478;11.060;2023-02-26T10:53:44;0.40;;;0.40;;
76867;SDS011;66168;45.478;11.060;2023-02-26T10:56:17;0.50;;;0.50;;
76867;SDS011;66168;45.478;11.060;2023-02-26T10:58:47;0.70;;;0.70;;
76867;SDS011;66168;45.478;11.060;2023-02-26T11:01:17;0.80;;;0.50;;
76867;SDS011;66168;45.478;11.060;2023-02-26T11:03:47;0.60;;;0.60;;
76867;SDS011;66168;45.478;11.060;2023-02-26T11:06:26;0.80;;;0.50;;
76867;SDS011;66168;45.478;11.060;2023-02-26T11:08:56;0.40;;;0.40;;
76867;SDS011;66168;45.478;11.060;2023-02-26T11:14:21;0.70;;;0.60;;
76867;SDS011;66168;45.478;11.060;2023-02-26T11:16:57;0.90;;;0.60;;
76867;SDS011;66168;45.478;11.060;2023-02-26T11:19:40;0.80;;;0.80;;
76867;SDS011;66168;45.478;11.060;2023-02-26T11:22:18;0.80;;;0.80;;
76867;SDS011;66168;45.478;11.060;2023-02-26T11:24:47;0.80;;;0.80;;
76867;SDS011;66168;45.478;11.060;2023-02-26T11:27:17;0.60;;;0.60;;
76867;SDS011;66168;45.478;11.060;2023-02-26T11:29:53;0.70;;;0.70;;
76867;SDS011;66168;45.478;11.060;2023-02-26T11:32:44;0.80;;;0.80;;
76867;SDS011;66168;45.478;11.060;2023-02-26T11:35:14;0.50;;;0.50;;
76867;SDS011;66168;45.478;11.060;2023-02-26T11:37:46;0.70;;;0.70;;
76867;SDS011;66168;45.478;11.060;2023-02-26T11:40:23;0.60;;;0.60;;
76867;SDS011;66168;45.478;11.060;2023-02-26T11:42:59;0.70;;;0.70;;
76867;SDS011;66168;45.478;11.060;2023-02-26T11:45:33;0.70;;;0.70;;
76867;SDS011;66168;45.478;11.060;2023-02-26T11:48:03;0.60;;;0.60;;
76867;SDS011;66168;45.478;11.060;2023-02-26T11:50:37;0.80;;;0.80;;
76867;SDS011;66168;45.478;11.060;2023-02-26T11:53:19;0.70;;;0.60;;
76867;SDS011;66168;45.478;11.060;2023-02-26T11:55:51;0.70;;;0.70;;
76867;SDS011;66168;45.478;11.060;2023-02-26T11:58:24;0.80;;;0.80;;
76867;SDS011;66168;45.478;11.060;2023-02-26T12:00:56;1.60;;;0.60;;
76867;SDS011;66168;45.478;11.060;2023-02-26T12:03:30;1.00;;;0.80;;
76867;SDS011;66168;45.478;11.060;2023-02-26T12:05:59;0.80;;;0.80;;
76867;SDS011;66168;45.478;11.060;2023-02-26T12:08:32;0.40;;;0.40;;
76867;SDS011;66168;45.478;11.060;2023-02-26T12:17:04;1.30;;;1.10;;
76867;SDS011;66168;45.478;11.060;2023-02-26T12:19:40;0.50;;;0.50;;
76867;SDS011;66168;45.478;11.060;2023-02-26T12:31:44;0.80;;;0.80;;
76867;SDS011;66168;45.478;11.060;2023-02-26T12:51:38;0.60;;;0.60;;
76867;SDS011;66168;45.478;11.060;2023-02-26T12:56:38;1.40;;;1.10;;
76867;SDS011;66168;45.478;11.060;2023-02-26T12:59:20;0.50;;;0.50;;
76867;SDS011;66168;45.478;11.060;2023-02-26T13:10:06;0.70;;;0.70;;
76867;SDS011;66168;45.478;11.060;2023-02-26T13:12:59;1.30;;;1.00;;
76867;SDS011;66168;45.478;11.060;2023-02-26T13:18:32;0.60;;;0.60;;
76867;SDS011;66168;45.478;11.060;2023-02-26T13:21:13;0.50;;;0.50;;
76867;SDS011;66168;45.478;11.060;2023-02-26T13:24:34;0.80;;;0.80;;
76867;SDS011;66168;45.478;11.060;2023-02-26T13:26:52;1.40;;;0.70;;
76867;SDS011;66168;45.478;11.060;2023-02-26T13:29:23;1.00;;;0.60;;
76867;SDS011;66168;45.478;11.060;2023-02-26T13:31:59;0.70;;;0.70;;
76867;SDS011;66168;45.478;11.060;2023-02-26T13:35:00;2.10;;;0.80;;
76867;SDS011;66168;45.478;11.060;2023-02-26T13:37:33;1.30;;;0.70;;
76867;SDS011;66168;45.478;11.060;2023-02-26T13:42:41;0.60;;;0.60;;
76867;SDS011;66168;45.478;11.060;2023-02-26T13:48:21;1.00;;;0.80;;
76867;SDS011;66168;45.478;11.060;2023-02-26T13:56:16;0.90;;;0.80;;
76867;SDS011;66168;45.478;11.060;2023-02-26T13:58:51;0.60;;;0.60;;
76867;SDS011;66168;45.478;11.060;2023-02-26T14:01:32;0.60;;;0.60;;
76867;SDS011;66168;45.478;11.060;2023-02-26T14:06:55;0.80;;;0.80;;
76867;SDS011;66168;45.478;11.060;2023-02-26T14:09:29;0.70;;;0.60;;
76867;SDS011;66168;45.478;11.060;2023-02-26T14:14:44;0.70;;;0.70;;
76867;SDS011;66168;45.478;11.060;2023-02-26T14:18:01;0.50;;;0.50;;
76867;SDS011;66168;45.478;11.060;2023-02-26T14:20:31;1.90;;;0.80;;
76867;SDS011;66168;45.478;11.060;2023-02-26T14:25:31;0.70;;;0.70;;
76867;SDS011;66168;45.478;11.060;2023-02-26T14:28:53;1.80;;;0.80;;
76867;SDS011;66168;45.478;11.060;2023-02-26T14:33:47;0.40;;;0.40;;
76867;SDS011;66168;45.478;11.060;2023-02-26T14:36:34;1.10;;;0.70;;
76867;SDS011;66168;45.478;11.060;2023-02-26T14:39:06;1.00;;;0.80;;
76867;SDS011;66168;45.478;11.060;2023-02-26T14:41:42;2.60;;;0.50;;
76867;SDS011;66168;45.478;11.060;2023-02-26T14:44:14;0.70;;;0.70;;
76867;SDS011;66168;45.478;11.060;2023-02-26T14:46:46;0.50;;;0.50;;
76867;SDS011;66168;45.478;11.060;2023-02-26T14:57:45;0.40;;;0.40;;
76867;SDS011;66168;45.478;11.060;2023-02-26T15:03:17;1.50;;;0.70;;
76867;SDS011;66168;45.478;11.060;2023-02-26T15:22:54;0.50;;;0.50;;
76867;SDS011;66168;45.478;11.060;2023-02-26T15:25:47;0.50;;;0.50;;
76867;SDS011;66168;45.478;11.060;2023-02-26T15:30:50;0.60;;;0.40;;
76867;SDS011;66168;45.478;11.060;2023-02-26T15:33:18;0.80;;;0.80;;
76867;SDS011;66168;45.478;11.060;2023-02-26T15:35:49;0.70;;;0.70;;
76867;SDS011;66168;45.478;11.060;2023-02-26T15:38:17;0.80;;;0.60;;
76867;SDS011;66168;45.478;11.060;2023-02-26T15:40:45;0.70;;;0.70;;
76867;SDS011;66168;45.478;11.060;2023-02-26T15:43:14;0.80;;;0.70;;
76867;SDS011;66168;45.478;11.060;2023-02-26T15:45:46;1.30;;;0.70;;
76867;SDS011;66168;45.478;11.060;2023-02-26T15:48:16;0.80;;;0.80;;
76867;SDS011;66168;45.478;11.060;2023-02-26T15:50:47;2.10;;;0.90;;
76867;SDS011;66168;45.478;11.060;2023-02-26T15:53:20;1.60;;;0.90;;
76867;SDS011;66168;45.478;11.060;2023-02-26T15:55:54;1.40;;;0.90;;
76867;SDS011;66168;45.478;11.060;2023-02-26T15:58:29;1.70;;;0.70;;
76867;SDS011;66168;45.478;11.060;2023-02-26T16:01:13;0.50;;;0.50;;
76867;SDS011;66168;45.478;11.060;2023-02-26T16:03:45;0.50;;;0.50;;
76867;SDS011;66168;45.478;11.060;2023-02-26T16:06:14;0.80;;;0.80;;
76867;SDS011;66168;45.478;11.060;2023-02-26T16:08:44;0.80;;;0.70;;
76867;SDS011;66168;45.478;11.060;2023-02-26T16:11:11;0.80;;;0.80;;
76867;SDS011;66168;45.478;11.060;2023-02-26T16:13:40;1.00;;;1.00;;
76867;SDS011;66168;45.478;11.060;2023-02-26T16:16:23;1.00;;;0.70;;
76867;SDS011;66168;45.478;11.060;2023-02-26T16:18:53;3.00;;;0.80;;
76867;SDS011;66168;45.478;11.060;2023-02-26T16:21:32;1.40;;;1.10;;
76867;SDS011;66168;45.478;11.060;2023-02-26T16:24:03;0.70;;;0.70;;
76867;SDS011;66168;45.478;11.060;2023-02-26T16:26:33;0.60;;;0.60;;
76867;SDS011;66168;45.478;11.060;2023-02-26T16:29:11;0.70;;;0.70;;
76867;SDS011;66168;45.478;11.060;2023-02-26T16:31:41;0.90;;;0.90;;
76867;SDS011;66168;45.478;11.060;2023-02-26T16:36:51;1.00;;;0.90;;
76867;SDS011;66168;45.478;11.060;2023-02-26T16:39:23;0.80;;;0.80;;
76867;SDS011;66168;45.478;11.060;2023-02-26T16:42:11;0.70;;;0.70;;
76867;SDS011;66168;45.478;11.060;2023-02-26T16:44:46;0.60;;;0.60;;
76867;SDS011;66168;45.478;11.060;2023-02-26T16:47:33;0.60;;;0.60;;
76867;SDS011;66168;45.478;11.060;2023-02-26T16:50:01;1.70;;;0.80;;
76867;SDS011;66168;45.478;11.060;2023-02-26T16:52:28;1.60;;;1.00;;
76867;SDS011;66168;45.478;11.060;2023-02-26T16:54:57;1.00;;;0.90;;
76867;SDS011;66168;45.478;11.060;2023-02-26T16:57:49;0.70;;;0.70;;
76867;SDS011;66168;45.478;11.060;2023-02-26T17:00:15;1.20;;;0.90;;
76867;SDS011;66168;45.478;11.060;2023-02-26T17:02:46;0.90;;;0.90;;
76867;SDS011;66168;45.478;11.060;2023-02-26T17:05:20;0.90;;;0.90;;
76867;SDS011;66168;45.478;11.060;2023-02-26T17:07:54;1.30;;;1.10;;
76867;SDS011;66168;45.478;11.060;2023-02-26T17:10:33;0.90;;;0.90;;
76867;SDS011;66168;45.478;11.060;2023-02-26T17:13:25;1.50;;;0.90;;
76867;SDS011;66168;45.478;11.060;2023-02-26T17:15:57;1.00;;;1.00;;
76867;SDS011;66168;45.478;11.060;2023-02-26T17:18:25;1.20;;;1.10;;
76867;SDS011;66168;45.478;11.060;2023-02-26T17:20:52;0.90;;;0.80;;
76867;SDS011;66168;45.478;11.060;2023-02-26T17:23:20;1.40;;;1.20;;
76867;SDS011;66168;45.478;11.060;2023-02-26T17:25:51;19.30;;;11.20;;
76867;SDS011;66168;45.478;11.060;2023-02-26T17:28:22;3.30;;;2.20;;
76867;SDS011;66168;45.478;11.060;2023-02-26T17:30:51;1.40;;;1.30;;
76867;SDS011;66168;45.478;11.060;2023-02-26T17:33:19;3.90;;;1.20;;
76867;SDS011;66168;45.478;11.060;2023-02-26T17:35:46;2.10;;;1.90;;
76867;SDS011;66168;45.478;11.060;2023-02-26T17:38:14;1.60;;;1.50;;
76867;SDS011;66168;45.478;11.060;2023-02-26T17:40:42;3.00;;;1.40;;
76867;SDS011;66168;45.478;11.060;2023-02-26T17:43:13;2.20;;;1.70;;
76867;SDS011;66168;45.478;11.060;2023-02-26T17:45:39;1.20;;;1.10;;
76867;SDS011;66168;45.478;11.060;2023-02-26T17:48:06;2.90;;;1.40;;
76867;SDS011;66168;45.478;11.060;2023-02-26T17:53:21;1.20;;;1.10;;
76867;SDS011;66168;45.478;11.060;2023-02-26T17:55:49;1.10;;;1.00;;
76867;SDS011;66168;45.478;11.060;2023-02-26T17:58:21;1.00;;;1.00;;
76867;SDS011;66168;45.478;11.060;2023-02-26T18:00:53;1.00;;;0.80;;
76867;SDS011;66168;45.478;11.060;2023-02-26T18:03:21;5.40;;;4.10;;
76867;SDS011;66168;45.478;11.060;2023-02-26T18:05:48;2.30;;;1.60;;
76867;SDS011;66168;45.478;11.060;2023-02-26T18:08:19;4.60;;;3.40;;
76867;SDS011;66168;45.478;11.060;2023-02-26T18:10:49;10.00;;;7.10;;